createdAt,value
2023-03-16T18:56:28.627Z,12.27
2023-03-16T18:58:56.760Z,12.49
2023-03-16T19:01:30.896Z,12.55
2023-03-16T19:03:59.247Z,12.70
2023-03-16T19:06:34.949Z,12.74
2023-03-16T19:09:07.805Z,12.84
2023-03-16T19:11:40.645Z,12.78
2023-03-16T19:14:23.645Z,12.72
2023-03-16T19:16:51.837Z,12.61
2023-03-16T19:19:22.817Z,12.66
2023-03-16T19:21:52.905Z,12.71
2023-03-16T19:24:42.546Z,12.53
2023-03-16T19:27:25.699Z,12.52
2023-03-16T19:29:54.061Z,12.48
2023-03-16T19:32:22.316Z,12.39
2023-03-16T19:34:49.181Z,12.30
2023-03-16T19:37:19.673Z,12.25
2023-03-16T19:39:46.619Z,12.21
2023-03-16T19:42:19.442Z,12.30
2023-03-16T19:44:49.328Z,12.28
2023-03-16T19:47:27.991Z,12.36
2023-03-16T19:49:55.207Z,12.22
2023-03-16T19:52:21.894Z,12.18
2023-03-16T19:54:48.679Z,12.17
2023-03-16T19:57:17.988Z,12.16
2023-03-16T19:59:48.958Z,12.00
2023-03-16T20:02:23.604Z,12.01
2023-03-16T20:04:50.363Z,12.06
2023-03-16T20:07:17.433Z,11.83
2023-03-16T20:09:45.141Z,11.99
2023-03-16T20:12:24.829Z,11.97
2023-03-16T20:14:52.314Z,12.00
2023-03-16T20:17:24.965Z,11.92
2023-03-16T20:19:53.124Z,11.91
2023-03-16T20:22:22.371Z,11.85
2023-03-16T20:24:51.113Z,11.60
2023-03-16T20:27:20.001Z,11.62
2023-03-16T20:29:47.179Z,11.59
2023-03-16T20:32:28.007Z,11.60
2023-03-16T20:34:54.839Z,11.49
2023-03-16T20:37:24.637Z,11.48
2023-03-16T20:39:55.756Z,11.61
2023-03-16T20:42:31.722Z,11.50
2023-03-16T20:44:59.108Z,11.51
2023-03-16T20:47:26.785Z,11.42
2023-03-16T20:50:00.330Z,11.38
2023-03-16T20:52:30.813Z,11.35
2023-03-16T20:54:58.851Z,11.40
2023-03-16T20:57:27.415Z,11.30
2023-03-16T20:59:55.619Z,11.38
2023-03-16T21:02:35.229Z,11.27
2023-03-16T21:05:05.216Z,11.16
2023-03-16T21:07:32.454Z,11.15
2023-03-16T21:09:59.296Z,11.02
2023-03-16T21:12:30.909Z,10.98
2023-03-16T21:14:59.071Z,10.90
2023-03-16T21:17:29.467Z,11.03
2023-03-16T21:19:56.604Z,11.00
2023-03-16T21:22:29.346Z,11.02
2023-03-16T21:24:56.508Z,10.94
2023-03-16T21:27:32.521Z,10.98
2023-03-16T21:30:02.885Z,10.93
2023-03-16T21:32:30.975Z,10.86
2023-03-16T21:34:57.858Z,10.85
2023-03-16T21:37:24.691Z,10.91
2023-03-16T21:39:52.444Z,10.91
2023-03-16T21:42:19.881Z,10.85
2023-03-16T21:44:46.746Z,10.79
2023-03-16T21:47:26.653Z,10.90
2023-03-16T21:49:54.721Z,10.82
2023-03-16T21:52:27.871Z,10.85
2023-03-16T21:54:57.012Z,10.67
2023-03-16T21:57:24.201Z,10.68
2023-03-16T21:59:51.273Z,10.62
2023-03-16T22:02:22.817Z,10.54
2023-03-16T22:04:51.223Z,10.58
2023-03-16T22:07:18.337Z,10.60
2023-03-16T22:09:46.108Z,10.67
2023-03-16T22:12:14.110Z,10.66
2023-03-16T22:14:41.087Z,10.62
2023-03-16T22:17:16.891Z,10.63
2023-03-16T22:19:43.676Z,10.44
2023-03-16T22:22:15.092Z,10.43
2023-03-16T22:24:42.046Z,10.36
2023-03-16T22:27:26.889Z,10.42
2023-03-16T22:29:53.634Z,10.28
2023-03-16T22:32:22.905Z,10.25
2023-03-16T22:34:51.287Z,10.46
2023-03-16T22:37:24.411Z,10.48
2023-03-16T22:39:53.047Z,10.48
2023-03-16T22:42:19.724Z,10.51
2023-03-16T22:44:46.521Z,10.62
2023-03-16T22:47:26.419Z,10.64
2023-03-16T22:49:53.924Z,10.72
2023-03-16T22:52:25.646Z,10.79
2023-03-16T22:54:52.954Z,10.82
2023-03-16T22:57:20.153Z,10.77
2023-03-16T22:59:48.776Z,10.73
2023-03-16T23:02:16.193Z,10.63
2023-03-16T23:04:43.121Z,10.69
2023-03-16T23:07:14.070Z,10.66
2023-03-16T23:09:40.941Z,10.70
2023-03-16T23:12:15.132Z,10.83
2023-03-16T23:14:42.334Z,10.81
2023-03-16T23:17:22.408Z,10.94
2023-03-16T23:19:49.330Z,10.98
2023-03-16T23:22:16.376Z,11.00
2023-03-16T23:24:43.357Z,10.89
2023-03-16T23:27:18.116Z,11.00
2023-03-16T23:29:45.041Z,10.93
2023-03-16T23:32:11.989Z,10.99
2023-03-16T23:34:38.696Z,11.08
2023-03-16T23:37:05.494Z,11.03
2023-03-16T23:39:32.341Z,11.11
2023-03-16T23:41:59.257Z,11.12
2023-03-16T23:44:29.129Z,11.17
2023-03-16T23:46:56.193Z,11.19
2023-03-16T23:49:26.574Z,11.31
2023-03-16T23:51:56.303Z,11.26
2023-03-16T23:54:26.306Z,11.44
2023-03-16T23:56:53.306Z,11.50
2023-03-16T23:59:21.088Z,11.54
